createdAt,value
2023-01-26T00:01:57.303Z,7.00
2023-01-26T00:04:25.408Z,7.00
2023-01-26T00:06:53.063Z,6.90
2023-01-26T00:09:20.938Z,6.90
2023-01-26T00:11:48.874Z,7.00
2023-01-26T00:14:16.703Z,7.00
2023-01-26T00:16:44.358Z,7.10
2023-01-26T00:19:12.086Z,7.00
2023-01-26T00:21:39.835Z,7.00
2023-01-26T00:24:07.753Z,7.00
2023-01-26T00:26:35.469Z,6.90
2023-01-26T00:29:03.270Z,6.90
2023-01-26T00:31:31.107Z,6.90
2023-01-26T00:34:00.413Z,6.80
2023-01-26T00:36:28.779Z,6.80
2023-01-26T00:38:57.277Z,6.70
2023-01-26T00:41:43.372Z,6.70
2023-01-26T00:44:11.121Z,6.70
2023-01-26T00:46:38.830Z,6.70
2023-01-26T00:49:07.946Z,6.70
2023-01-26T00:51:35.664Z,6.60
2023-01-26T00:54:05.117Z,6.60
2023-01-26T00:56:32.905Z,6.60
2023-01-26T00:59:00.566Z,6.60
2023-01-26T01:01:28.278Z,6.60
2023-01-26T01:03:55.969Z,6.60
2023-01-26T01:06:23.886Z,6.60
2023-01-26T01:08:51.781Z,6.70
2023-01-26T01:11:19.542Z,6.70
2023-01-26T01:13:47.348Z,6.70
2023-01-26T01:16:16.822Z,6.70
2023-01-26T01:18:45.363Z,6.80
2023-01-26T01:21:17.860Z,6.80
2023-01-26T01:23:45.561Z,6.80
2023-01-26T01:26:14.275Z,6.80
2023-01-26T01:28:43.487Z,6.70
2023-01-26T01:31:14.309Z,6.70
2023-01-26T01:33:43.239Z,6.70
2023-01-26T01:36:13.592Z,6.70
2023-01-26T01:38:42.713Z,6.70
2023-01-26T01:41:11.060Z,6.70
2023-01-26T01:43:39.112Z,6.70
2023-01-26T01:46:13.146Z,6.60
2023-01-26T01:49:01.303Z,6.60
2023-01-26T01:51:45.388Z,6.60
2023-01-26T01:54:17.282Z,6.60
2023-01-26T01:56:51.737Z,6.70
2023-01-26T01:59:20.869Z,6.70
2023-01-26T02:01:53.411Z,6.80
2023-01-26T02:04:22.851Z,6.80
2023-01-26T02:06:54.011Z,6.90
2023-01-26T02:09:46.599Z,6.80
2023-01-26T02:12:18.370Z,6.80
2023-01-26T02:14:47.539Z,6.80
2023-01-26T02:17:15.586Z,6.70
2023-01-26T02:20:18.921Z,6.70
2023-01-26T02:23:07.121Z,6.70
2023-01-26T02:25:53.755Z,6.60
2023-01-26T02:28:24.745Z,6.60
2023-01-26T02:30:54.569Z,6.70
2023-01-26T02:33:24.969Z,6.60
2023-01-26T02:35:55.664Z,6.60
2023-01-26T02:38:26.766Z,6.70
2023-01-26T02:41:06.347Z,6.70
2023-01-26T02:43:34.603Z,6.80
2023-01-26T02:46:02.699Z,6.80
2023-01-26T02:48:49.127Z,6.80
2023-01-26T02:51:17.255Z,6.80
2023-01-26T02:53:46.411Z,6.70
2023-01-26T02:56:14.507Z,6.70
2023-01-26T02:58:43.510Z,6.80
2023-01-26T03:01:11.723Z,6.80
2023-01-26T03:03:47.687Z,6.80
2023-01-26T03:06:17.385Z,6.80
2023-01-26T03:08:45.137Z,6.70
2023-01-26T03:11:12.870Z,6.70
2023-01-26T03:13:40.807Z,6.70
2023-01-26T03:16:10.438Z,6.60
2023-01-26T03:18:56.673Z,6.60
2023-01-26T03:21:42.803Z,6.50
2023-01-26T03:24:32.762Z,6.50
2023-01-26T03:27:21.262Z,6.40
2023-01-26T03:29:49.087Z,6.40
2023-01-26T03:32:16.813Z,6.30
2023-01-26T03:34:44.795Z,6.30
2023-01-26T03:37:12.781Z,6.20
2023-01-26T03:40:19.216Z,6.20
2023-01-26T03:43:05.312Z,6.20
2023-01-26T03:45:51.619Z,6.20
2023-01-26T03:48:39.608Z,6.20
2023-01-26T03:51:25.830Z,6.20
2023-01-26T03:54:12.123Z,6.10
2023-01-26T03:56:40.097Z,6.20
2023-01-26T03:59:15.628Z,6.10
2023-01-26T04:02:05.255Z,6.00
2023-01-26T04:04:52.697Z,6.10
2023-01-26T04:07:42.804Z,6.00
2023-01-26T04:10:11.482Z,6.00
2023-01-26T04:12:39.405Z,6.00
2023-01-26T04:15:33.482Z,6.00
2023-01-26T04:18:25.741Z,6.00
2023-01-26T04:21:13.010Z,5.90
2023-01-26T04:23:43.077Z,5.90
2023-01-26T04:26:10.761Z,5.90
2023-01-26T04:28:38.695Z,5.80
2023-01-26T04:31:07.005Z,5.80
2023-01-26T04:33:37.124Z,5.70
2023-01-26T04:36:09.683Z,5.80
2023-01-26T04:38:41.288Z,5.80
2023-01-26T04:41:09.269Z,5.70
2023-01-26T04:43:44.073Z,5.70
2023-01-26T04:46:12.030Z,5.60
2023-01-26T04:48:41.029Z,5.60
2023-01-26T04:51:17.518Z,5.60
2023-01-26T04:53:45.393Z,5.60
2023-01-26T04:56:23.921Z,5.70
2023-01-26T04:58:54.089Z,5.70
2023-01-26T05:01:22.726Z,5.70
2023-01-26T05:03:51.264Z,5.80
2023-01-26T05:06:19.138Z,5.80
2023-01-26T05:08:48.847Z,5.80
2023-01-26T05:11:16.595Z,5.80
2023-01-26T05:13:58.058Z,5.70
2023-01-26T05:16:44.050Z,5.80
2023-01-26T05:19:41.565Z,5.80
2023-01-26T05:22:21.605Z,5.70
2023-01-26T05:25:19.021Z,5.80
2023-01-26T05:27:53.897Z,5.70
2023-01-26T05:30:21.867Z,5.70
2023-01-26T05:32:50.963Z,5.80
2023-01-26T05:35:18.721Z,5.80
2023-01-26T05:37:46.809Z,5.80
2023-01-26T05:40:15.801Z,5.80
2023-01-26T05:42:44.190Z,5.80
2023-01-26T05:45:21.251Z,5.90
2023-01-26T05:47:51.667Z,6.00
2023-01-26T05:50:20.428Z,5.90
2023-01-26T05:53:07.987Z,6.00
2023-01-26T05:55:37.648Z,6.00
2023-01-26T05:58:06.096Z,6.10
2023-01-26T06:00:34.381Z,6.10
2023-01-26T06:03:08.607Z,6.10
2023-01-26T06:05:36.555Z,6.20
2023-01-26T06:08:11.104Z,6.20
2023-01-26T06:10:52.481Z,6.20
2023-01-26T06:13:46.396Z,6.20
2023-01-26T06:16:25.900Z,6.20
2023-01-26T06:18:53.681Z,6.20
2023-01-26T06:21:21.709Z,6.20
2023-01-26T06:23:49.617Z,6.20
2023-01-26T06:26:18.446Z,6.10
2023-01-26T06:28:46.828Z,6.10
2023-01-26T06:31:15.415Z,6.00
2023-01-26T06:33:43.721Z,6.00
2023-01-26T06:36:14.936Z,6.00
2023-01-26T06:38:48.582Z,6.10
2023-01-26T06:41:17.644Z,6.10
2023-01-26T06:43:47.628Z,6.10
2023-01-26T06:46:16.910Z,6.10
2023-01-26T06:48:46.416Z,6.00
2023-01-26T06:51:17.113Z,6.00
2023-01-26T06:53:58.663Z,6.00
2023-01-26T06:56:46.569Z,6.10
2023-01-26T06:59:37.722Z,6.10
2023-01-26T07:02:24.026Z,6.00
2023-01-26T07:04:51.911Z,6.10
2023-01-26T07:07:19.548Z,6.10
2023-01-26T07:09:47.247Z,6.10
2023-01-26T07:12:15.506Z,6.10
2023-01-26T07:14:43.264Z,6.10
2023-01-26T07:17:10.972Z,6.20
2023-01-26T07:19:38.819Z,6.20
2023-01-26T07:22:06.395Z,6.20
2023-01-26T07:24:34.138Z,6.30
2023-01-26T07:27:01.871Z,6.30
2023-01-26T07:29:29.943Z,6.30
2023-01-26T07:31:57.714Z,6.30
2023-01-26T07:34:25.477Z,6.30
2023-01-26T07:36:53.291Z,6.30
2023-01-26T07:39:20.993Z,6.30
2023-01-26T07:41:49.987Z,6.30
2023-01-26T07:44:33.866Z,6.30
2023-01-26T07:47:01.556Z,6.40
2023-01-26T07:49:29.191Z,6.50
2023-01-26T07:51:57.119Z,6.60
2023-01-26T07:54:25.020Z,6.70
2023-01-26T07:56:54.827Z,6.70
2023-01-26T07:59:23.344Z,6.70
2023-01-26T08:01:52.553Z,6.70
2023-01-26T08:04:20.492Z,6.70
2023-01-26T08:06:48.136Z,6.80
2023-01-26T08:09:16.029Z,6.90
2023-01-26T08:11:43.749Z,6.90
2023-01-26T08:14:11.487Z,7.00
2023-01-26T08:16:39.304Z,7.00
2023-01-26T08:19:07.041Z,6.90
2023-01-26T08:21:34.689Z,6.90
2023-01-26T08:24:03.653Z,6.80
2023-01-26T08:26:32.426Z,6.90
2023-01-26T08:29:01.077Z,6.90
2023-01-26T08:31:33.592Z,6.90
2023-01-26T08:34:01.404Z,7.00
2023-01-26T08:36:29.055Z,7.10
2023-01-26T08:38:56.738Z,7.10
2023-01-26T08:41:24.348Z,7.20
2023-01-26T08:43:53.295Z,7.30
2023-01-26T08:46:21.143Z,7.30
2023-01-26T08:48:48.939Z,7.40
2023-01-26T08:51:16.692Z,7.40
2023-01-26T08:53:44.922Z,7.50
2023-01-26T08:56:13.426Z,7.60
2023-01-26T08:58:41.621Z,7.70
2023-01-26T09:01:13.202Z,7.90
2023-01-26T09:03:41.064Z,7.90
2023-01-26T09:06:10.473Z,8.00
2023-01-26T09:08:38.295Z,8.10
2023-01-26T09:11:07.412Z,8.10
2023-01-26T09:13:37.322Z,8.30
2023-01-26T09:16:13.124Z,8.50
2023-01-26T09:18:40.796Z,8.70
2023-01-26T09:21:09.841Z,8.60
2023-01-26T09:23:38.847Z,8.60
2023-01-26T09:26:06.776Z,8.70
2023-01-26T09:28:34.795Z,8.70
2023-01-26T09:31:07.530Z,8.70
2023-01-26T09:33:35.832Z,8.70
2023-01-26T09:36:08.893Z,8.70
2023-01-26T09:38:36.830Z,8.60
2023-01-26T09:41:39.723Z,8.60
2023-01-26T09:44:16.460Z,8.60
2023-01-26T09:46:44.552Z,8.60
2023-01-26T09:49:26.932Z,8.70
2023-01-26T09:52:03.679Z,8.60
2023-01-26T09:54:31.398Z,8.70
2023-01-26T09:57:11.884Z,8.70
2023-01-26T09:59:50.682Z,8.70
2023-01-26T10:02:30.346Z,8.70
2023-01-26T10:05:05.184Z,8.70
2023-01-26T10:07:33.725Z,8.80
2023-01-26T10:10:02.741Z,8.80
2023-01-26T10:12:35.074Z,8.70
2023-01-26T10:15:30.259Z,8.80
2023-01-26T10:18:02.725Z,8.70
2023-01-26T10:20:36.561Z,8.60
2023-01-26T10:23:14.459Z,8.70
2023-01-26T10:25:47.409Z,8.70
2023-01-26T10:28:29.797Z,8.80
2023-01-26T10:30:58.015Z,8.80
2023-01-26T10:33:27.717Z,8.90
2023-01-26T10:35:55.857Z,9.00
2023-01-26T10:38:33.567Z,9.20
2023-01-26T10:41:06.975Z,9.30
2023-01-26T10:43:42.111Z,9.30
2023-01-26T10:46:29.731Z,9.30
2023-01-26T10:49:17.760Z,9.40
2023-01-26T10:52:06.243Z,9.40
2023-01-26T10:54:35.943Z,9.50
2023-01-26T10:57:09.637Z,9.50
2023-01-26T10:59:48.308Z,9.60
2023-01-26T11:02:16.073Z,9.70
2023-01-26T11:05:09.613Z,9.90
2023-01-26T11:07:46.521Z,9.90
2023-01-26T11:10:34.931Z,10.00
2023-01-26T11:13:08.769Z,9.90
2023-01-26T11:15:39.677Z,9.80
2023-01-26T11:18:21.365Z,9.90
2023-01-26T11:21:17.605Z,9.90
2023-01-26T11:24:05.278Z,9.90
2023-01-26T11:26:43.554Z,9.90
2023-01-26T11:29:11.204Z,10.00
2023-01-26T11:31:57.866Z,10.10
2023-01-26T11:34:39.392Z,9.90
2023-01-26T11:37:19.450Z,10.10
2023-01-26T11:40:28.007Z,10.20
2023-01-26T11:43:20.276Z,10.40
2023-01-26T11:46:12.987Z,10.50
2023-01-26T11:49:18.183Z,10.60
2023-01-26T11:52:05.794Z,10.50
2023-01-26T11:54:42.995Z,10.70
2023-01-26T11:57:27.938Z,10.80
2023-01-26T12:00:28.703Z,11.00
2023-01-26T12:03:06.038Z,11.20
2023-01-26T12:05:47.974Z,11.40
2023-01-26T12:08:15.560Z,11.60
2023-01-26T12:10:51.459Z,11.70
2023-01-26T12:13:40.906Z,11.30
2023-01-26T12:16:23.930Z,10.90
2023-01-26T12:19:31.705Z,11.00
2023-01-26T12:22:13.369Z,11.10
2023-01-26T12:25:16.217Z,11.40
2023-01-26T12:27:43.865Z,11.70
2023-01-26T12:30:23.359Z,11.90
2023-01-26T12:32:51.935Z,11.90
2023-01-26T12:35:46.839Z,12.10
2023-01-26T12:38:31.946Z,12.10
2023-01-26T12:41:17.310Z,12.10
2023-01-26T12:44:03.825Z,12.10
2023-01-26T12:46:36.361Z,12.30
2023-01-26T12:49:13.202Z,12.00
2023-01-26T12:51:48.307Z,12.00
2023-01-26T12:54:45.300Z,12.10
2023-01-26T12:57:18.109Z,11.80
2023-01-26T12:59:48.769Z,12.00
2023-01-26T13:02:17.006Z,12.00
2023-01-26T13:04:48.856Z,11.70
2023-01-26T13:07:38.782Z,12.00
2023-01-26T13:10:16.442Z,12.10
2023-01-26T13:12:50.361Z,12.20
2023-01-26T13:15:27.468Z,12.30
2023-01-26T13:18:04.239Z,12.40
2023-01-26T13:20:42.218Z,12.50
2023-01-26T13:23:42.762Z,12.20
2023-01-26T13:26:33.264Z,11.50
2023-01-26T13:29:25.802Z,11.40
2023-01-26T13:31:55.287Z,11.00
2023-01-26T13:34:32.599Z,10.50
2023-01-26T13:37:24.038Z,10.50
2023-01-26T13:40:04.460Z,10.50
2023-01-26T13:42:48.787Z,10.40
2023-01-26T13:45:51.371Z,10.30
2023-01-26T13:48:48.163Z,10.30
2023-01-26T13:51:25.381Z,10.10
2023-01-26T13:54:13.996Z,10.00
2023-01-26T13:57:04.778Z,9.70
2023-01-26T13:59:33.427Z,9.60
2023-01-26T14:02:01.373Z,9.60
2023-01-26T14:04:35.365Z,9.90
2023-01-26T14:07:10.082Z,9.90
2023-01-26T14:10:01.321Z,10.00
2023-01-26T14:12:36.569Z,9.90
2023-01-26T14:15:07.512Z,9.70
2023-01-26T14:17:37.668Z,9.70
2023-01-26T14:20:26.579Z,9.70
2023-01-26T14:23:18.943Z,9.60
2023-01-26T14:25:57.013Z,9.60
2023-01-26T14:28:34.446Z,9.50
2023-01-26T14:31:13.077Z,9.30
2023-01-26T14:33:40.998Z,9.30
2023-01-26T14:36:16.756Z,9.50
2023-01-26T14:38:46.998Z,9.50
2023-01-26T14:41:32.471Z,9.50
2023-01-26T14:44:07.677Z,9.70
2023-01-26T14:46:50.386Z,9.70
2023-01-26T14:49:43.429Z,9.70
2023-01-26T14:52:24.178Z,9.70
2023-01-26T14:54:54.741Z,9.60
2023-01-26T14:57:25.643Z,9.50
2023-01-26T14:59:58.678Z,9.50
2023-01-26T15:02:38.017Z,9.50
2023-01-26T15:05:19.288Z,9.50
2023-01-26T15:07:52.223Z,9.40
2023-01-26T15:10:32.461Z,9.50
2023-01-26T15:13:15.081Z,9.50
2023-01-26T15:15:49.210Z,9.50
2023-01-26T15:18:20.119Z,9.40
2023-01-26T15:21:34.185Z,9.40
2023-01-26T15:24:03.752Z,9.40
2023-01-26T15:26:36.668Z,9.40
2023-01-26T15:29:25.051Z,9.30
2023-01-26T15:31:56.335Z,9.30
2023-01-26T15:34:36.876Z,9.20
2023-01-26T15:37:27.951Z,9.20
2023-01-26T15:39:55.640Z,9.20
2023-01-26T15:42:30.340Z,9.20
2023-01-26T15:44:58.572Z,9.10
2023-01-26T15:47:26.507Z,9.10
2023-01-26T15:49:54.491Z,9.10
2023-01-26T15:52:26.074Z,9.10
2023-01-26T15:54:54.218Z,9.10
2023-01-26T15:57:22.027Z,9.10
2023-01-26T15:59:49.616Z,9.10
2023-01-26T16:02:20.747Z,9.00
2023-01-26T16:04:48.948Z,9.00
2023-01-26T16:07:18.660Z,9.00
2023-01-26T16:09:48.434Z,8.90
2023-01-26T16:12:33.491Z,8.90
2023-01-26T16:15:01.411Z,8.80
2023-01-26T16:17:29.370Z,8.70
2023-01-26T16:19:57.079Z,8.80
2023-01-26T16:22:25.566Z,8.60
2023-01-26T16:24:53.255Z,8.50
2023-01-26T16:27:21.770Z,8.40
2023-01-26T16:29:49.519Z,8.50
2023-01-26T16:32:28.953Z,8.50
2023-01-26T16:34:56.766Z,8.60
2023-01-26T16:37:24.510Z,8.50
2023-01-26T16:39:52.163Z,8.50
2023-01-26T16:42:21.671Z,8.60
2023-01-26T16:44:50.193Z,8.60
2023-01-26T16:47:17.878Z,8.60
2023-01-26T16:49:45.709Z,8.60
2023-01-26T16:52:13.517Z,8.60
2023-01-26T16:54:41.167Z,8.60
2023-01-26T16:57:09.508Z,8.50
2023-01-26T16:59:37.192Z,8.50
2023-01-26T17:02:05.081Z,8.40
2023-01-26T17:04:32.781Z,8.20
2023-01-26T17:07:00.531Z,8.20
2023-01-26T17:09:28.733Z,8.30
2023-01-26T17:11:56.485Z,8.40
2023-01-26T17:14:24.571Z,8.50
2023-01-26T17:16:52.344Z,8.40
2023-01-26T17:19:19.974Z,8.40
2023-01-26T17:21:47.813Z,8.40
2023-01-26T17:24:15.590Z,8.40
2023-01-26T17:26:43.301Z,8.30
2023-01-26T17:29:13.425Z,8.30
2023-01-26T17:31:41.335Z,8.20
2023-01-26T17:34:09.711Z,8.20
2023-01-26T17:36:37.595Z,8.10
2023-01-26T17:39:05.327Z,8.10
2023-01-26T17:41:32.926Z,8.10
2023-01-26T17:44:00.711Z,8.20
2023-01-26T17:46:28.390Z,8.20
2023-01-26T17:48:56.177Z,8.20
2023-01-26T17:51:23.957Z,8.20
2023-01-26T17:53:51.804Z,8.20
2023-01-26T17:56:21.570Z,8.30
2023-01-26T17:58:51.390Z,8.20
2023-01-26T18:01:20.031Z,8.20
2023-01-26T18:03:47.938Z,8.10
2023-01-26T18:06:16.203Z,8.00
2023-01-26T18:08:43.986Z,7.90
2023-01-26T18:11:14.598Z,8.00
2023-01-26T18:13:42.507Z,8.00
2023-01-26T18:16:14.477Z,8.00
2023-01-26T18:18:42.347Z,7.90
2023-01-26T18:21:17.115Z,7.90
2023-01-26T18:23:48.879Z,7.80
2023-01-26T18:26:18.043Z,7.90
2023-01-26T18:28:46.154Z,7.90
2023-01-26T18:31:25.434Z,7.80
2023-01-26T18:33:53.636Z,7.90
2023-01-26T18:36:22.086Z,7.80
2023-01-26T18:38:54.217Z,7.80
2023-01-26T18:41:23.395Z,7.80
2023-01-26T18:43:52.740Z,7.80
2023-01-26T18:46:21.741Z,7.70
2023-01-26T18:48:51.849Z,7.60
2023-01-26T18:51:22.784Z,7.60
2023-01-26T18:53:50.585Z,7.60
2023-01-26T18:56:18.457Z,7.50
2023-01-26T18:58:46.247Z,7.50
2023-01-26T19:01:15.990Z,7.40
2023-01-26T19:03:54.294Z,7.30
2023-01-26T19:06:24.268Z,7.30
2023-01-26T19:09:01.435Z,7.50
2023-01-26T19:11:32.905Z,7.70
2023-01-26T19:14:02.087Z,7.70
2023-01-26T19:16:30.485Z,7.70
2023-01-26T19:18:58.626Z,7.60
2023-01-26T19:21:27.863Z,7.60
2023-01-26T19:23:57.887Z,7.50
2023-01-26T19:26:31.045Z,7.30
2023-01-26T19:28:59.317Z,7.20
2023-01-26T19:31:28.306Z,7.30
2023-01-26T19:33:58.422Z,7.30
2023-01-26T19:36:28.081Z,7.40
2023-01-26T19:38:56.078Z,7.30
2023-01-26T19:41:24.735Z,7.40
2023-01-26T19:43:52.501Z,7.40
2023-01-26T19:46:20.924Z,7.40
2023-01-26T19:48:49.448Z,7.40
2023-01-26T19:51:20.208Z,7.50
2023-01-26T19:53:50.808Z,7.40
2023-01-26T19:56:21.670Z,7.40
2023-01-26T19:58:51.567Z,7.40
2023-01-26T20:01:19.511Z,7.40
2023-01-26T20:03:58.689Z,7.40
2023-01-26T20:06:29.671Z,7.40
2023-01-26T20:08:58.362Z,7.30
2023-01-26T20:11:29.040Z,7.40
2023-01-26T20:14:06.325Z,7.30
2023-01-26T20:16:35.336Z,7.30
2023-01-26T20:19:04.051Z,7.20
2023-01-26T20:21:32.595Z,7.10
2023-01-26T20:24:05.516Z,7.20
2023-01-26T20:26:34.830Z,7.10
2023-01-26T20:29:03.527Z,7.10
2023-01-26T20:31:32.876Z,7.20
2023-01-26T20:34:01.854Z,7.30
2023-01-26T20:36:30.285Z,7.30
2023-01-26T20:38:58.055Z,7.30
2023-01-26T20:41:28.603Z,7.30
2023-01-26T20:44:00.948Z,7.30
2023-01-26T20:46:35.552Z,7.20
2023-01-26T20:49:03.692Z,7.20
2023-01-26T20:51:35.835Z,7.30
2023-01-26T20:54:06.495Z,7.20
2023-01-26T20:56:35.704Z,7.10
2023-01-26T20:59:04.613Z,7.00
2023-01-26T21:01:36.560Z,6.90
2023-01-26T21:04:05.693Z,7.20
2023-01-26T21:06:34.163Z,7.10
2023-01-26T21:09:02.414Z,7.10
2023-01-26T21:11:31.537Z,7.20
2023-01-26T21:14:01.895Z,7.20
2023-01-26T21:16:31.860Z,7.20
2023-01-26T21:19:00.111Z,7.20
2023-01-26T21:21:28.109Z,7.20
2023-01-26T21:23:55.877Z,7.10
2023-01-26T21:26:26.123Z,7.20
2023-01-26T21:28:59.193Z,7.10
2023-01-26T21:31:29.831Z,7.10
2023-01-26T21:33:58.564Z,7.10
2023-01-26T21:36:28.700Z,7.10
2023-01-26T21:38:58.037Z,7.10
2023-01-26T21:41:52.222Z,7.10
2023-01-26T21:44:28.397Z,7.00
2023-01-26T21:47:01.649Z,7.00
2023-01-26T21:49:30.080Z,7.10
2023-01-26T21:52:16.785Z,7.10
2023-01-26T21:54:44.690Z,7.00
2023-01-26T21:57:31.904Z,7.00
2023-01-26T21:59:59.600Z,7.10
2023-01-26T22:02:27.240Z,7.10
2023-01-26T22:04:55.332Z,7.10
2023-01-26T22:07:23.046Z,7.00
2023-01-26T22:09:50.765Z,7.00
2023-01-26T22:12:18.570Z,7.00
2023-01-26T22:14:46.332Z,7.00
2023-01-26T22:17:14.017Z,7.00
2023-01-26T22:19:41.811Z,7.00
2023-01-26T22:22:09.530Z,6.90
2023-01-26T22:24:37.333Z,6.90
2023-01-26T22:27:06.764Z,6.90
2023-01-26T22:29:34.804Z,6.80
2023-01-26T22:32:02.944Z,6.80
2023-01-26T22:34:30.708Z,6.80
2023-01-26T22:36:58.418Z,6.80
2023-01-26T22:39:26.064Z,6.70
2023-01-26T22:41:53.774Z,6.80
2023-01-26T22:44:21.628Z,6.80
2023-01-26T22:46:49.292Z,6.80
2023-01-26T22:49:17.011Z,6.80
2023-01-26T22:51:44.712Z,6.90
2023-01-26T22:54:12.356Z,6.90
2023-01-26T22:56:40.247Z,6.70
2023-01-26T22:59:08.637Z,6.70
2023-01-26T23:01:36.304Z,6.80
2023-01-26T23:04:04.074Z,6.80
2023-01-26T23:06:31.841Z,6.80
2023-01-26T23:09:01.295Z,6.80
2023-01-26T23:11:30.404Z,6.60
2023-01-26T23:13:59.519Z,6.60
2023-01-26T23:16:28.100Z,6.60
2023-01-26T23:18:57.986Z,6.50
2023-01-26T23:21:27.019Z,6.50
2023-01-26T23:23:54.948Z,6.60
2023-01-26T23:26:22.802Z,6.60
2023-01-26T23:28:50.617Z,6.60
2023-01-26T23:31:19.305Z,6.60
2023-01-26T23:33:47.620Z,6.40
2023-01-26T23:36:15.881Z,6.40
2023-01-26T23:38:45.816Z,6.50
2023-01-26T23:41:13.942Z,6.50
2023-01-26T23:43:41.943Z,6.50
2023-01-26T23:46:12.092Z,6.60
2023-01-26T23:48:40.143Z,6.50
2023-01-26T23:51:10.029Z,6.40
2023-01-26T23:53:38.068Z,6.40
2023-01-26T23:56:17.602Z,6.30
2023-01-26T23:58:45.994Z,6.40
